Time;durP1;ratioP1;P1;durP2;ratioP2;P2;SDS_P1;SDS_P2;PMS_P1;PMS_P2;Temp;Humidity;BMP_temperature;BMP_pressure;BME280_temperature;BME280_humidity;BME280_pressure;Samples;Min_cycle;Max_cycle;Signal;HPM_P1;HPM_P2
2021/03/25 00:01:39;;;;;;;12.07;3.83;;;;;;;18.11;39.61;101358.13;5056922;28;20107;-76
2021/03/25 00:04:05;;;;;;;6.07;3.80;;;;;;;18.03;39.90;101357.13;5055678;28;20446;-75
2021/03/25 00:06:35;;;;;;;9.73;4.45;;;;;;;18.16;39.60;101352.38;5057141;28;20029;-76
2021/03/25 00:09:00;;;;;;;9.60;4.45;;;;;;;18.00;39.94;101351.50;5057328;28;20426;-76
2021/03/25 00:11:26;;;;;;;13.70;4.32;;;;;;;18.25;39.42;101352.22;5056122;28;20025;-92
2021/03/25 00:13:51;;;;;;;8.70;3.50;;;;;;;18.34;39.13;101352.91;5056615;28;20139;-76
2021/03/25 00:16:17;;;;;;;10.05;4.28;;;;;;;18.21;39.78;101352.16;5056829;28;20104;-91
2021/03/25 00:18:43;;;;;;;11.40;3.78;;;;;;;18.20;39.74;101349.69;5057014;28;20036;-75
2021/03/25 00:21:10;;;;;;;6.93;3.28;;;;;;;18.12;40.06;101356.97;5056901;28;20442;-75
2021/03/25 00:23:36;;;;;;;15.25;3.80;;;;;;;18.27;39.52;101355.44;5056854;28;20025;-75
2021/03/25 00:26:02;;;;;;;10.60;4.07;;;;;;;18.32;39.43;101357.19;5057211;28;20021;-76
2021/03/25 00:28:28;;;;;;;10.25;4.43;;;;;;;18.36;39.20;101358.06;5057430;28;20029;-90
2021/03/25 00:30:54;;;;;;;16.30;5.10;;;;;;;18.45;39.12;101353.22;5056544;28;20021;-75
2021/03/25 00:33:21;;;;;;;6.90;3.53;;;;;;;18.38;39.32;101351.03;5056315;28;20402;-76
2021/03/25 00:35:48;;;;;;;11.10;3.85;;;;;;;18.35;39.56;101350.94;5056915;28;20021;-83
2021/03/25 00:38:16;;;;;;;12.43;3.83;;;;;;;18.41;39.20;101353.09;5056513;28;20025;-74
2021/03/25 00:40:46;;;;;;;8.45;3.35;;;;;;;18.22;39.56;101352.94;5055049;28;20525;-75
2021/03/25 00:43:13;;;;;;;11.80;3.55;;;;;;;18.39;39.24;101343.56;5056510;28;20029;-75
2021/03/25 00:45:42;;;;;;;9.90;3.85;;;;;;;18.43;39.04;101348.00;5056209;28;20035;-89
2021/03/25 00:48:08;;;;;;;13.65;4.00;;;;;;;18.40;39.17;101343.19;5056114;28;20152;-90
2021/03/25 00:50:35;;;;;;;9.40;3.50;;;;;;;18.30;39.29;101344.50;5056358;28;20112;-91
2021/03/25 00:53:03;;;;;;;14.60;4.25;;;;;;;18.36;39.30;101341.47;5056638;28;20480;-75
2021/03/25 00:55:29;;;;;;;11.75;3.88;;;;;;;18.45;38.81;101340.19;5056029;28;20032;-87
2021/03/25 00:57:55;;;;;;;14.23;4.40;;;;;;;18.33;39.34;101342.97;5055071;28;20379;-75
2021/03/25 01:00:30;;;;;;;10.75;2.97;;;;;;;18.35;39.06;101334.31;5056364;28;20025;-84
2021/03/25 01:02:56;;;;;;;9.35;3.83;;;;;;;18.38;39.16;101344.72;5056317;28;20044;-75
2021/03/25 01:05:24;;;;;;;11.68;3.83;;;;;;;18.50;38.87;101347.41;5055713;28;20078;-87
2021/03/25 01:07:50;;;;;;;8.18;3.35;;;;;;;18.46;39.03;101335.47;5056047;28;20025;-92
2021/03/25 01:10:35;;;;;;;13.68;4.35;;;;;;;18.41;38.87;101330.97;5056004;28;20506;-75
2021/03/25 01:13:06;;;;;;;9.68;3.85;;;;;;;18.44;38.81;101323.91;5055491;28;20080;-75
2021/03/25 01:15:32;;;;;;;12.07;4.43;;;;;;;18.48;38.87;101322.06;5054661;28;20395;-75
2021/03/25 01:17:59;;;;;;;12.95;3.65;;;;;;;18.52;38.58;101323.78;5055846;28;20067;-91
2021/03/25 01:20:29;;;;;;;10.52;3.88;;;;;;;18.43;38.89;101312.03;5054876;28;20111;-81
2021/03/25 01:22:55;;;;;;;6.70;4.00;;;;;;;18.45;38.92;101317.25;5056599;28;20028;-75
2021/03/25 01:25:22;;;;;;;9.40;3.33;;;;;;;18.36;39.15;101314.59;5055809;28;20549;-79
2021/03/25 01:27:48;;;;;;;13.77;4.07;;;;;;;18.39;39.00;101313.13;5055821;28;20383;-76
2021/03/25 01:30:15;;;;;;;11.63;3.55;;;;;;;18.43;39.16;101309.28;5055613;28;20017;-76
2021/03/25 01:32:41;;;;;;;11.95;3.97;;;;;;;18.37;39.07;101315.44;5055841;28;20025;-79
2021/03/25 01:35:11;;;;;;;9.05;3.20;;;;;;;18.22;39.14;101309.50;5056231;28;20396;-75
2021/03/25 01:37:41;;;;;;;7.82;3.40;;;;;;;18.25;39.22;101306.00;5056162;28;20017;-75
2021/03/25 01:40:18;;;;;;;9.40;3.25;;;;;;;18.40;39.16;101306.41;5055768;28;20437;-75
2021/03/25 01:42:44;;;;;;;11.73;4.30;;;;;;;18.14;39.50;101302.16;5055771;28;20032;-75
2021/03/25 01:45:28;;;;;;;9.43;3.38;;;;;;;18.34;39.31;101296.75;5055519;28;20494;-91
2021/03/25 01:47:55;;;;;;;9.50;3.38;;;;;;;18.42;38.84;101312.41;5055619;28;20490;-76
2021/03/25 01:50:20;;;;;;;12.50;3.70;;;;;;;18.41;39.11;101305.25;5056158;28;20060;-75
2021/03/25 01:53:00;;;;;;;11.43;3.47;;;;;;;18.33;39.04;101293.19;5056231;28;20122;-75
2021/03/25 01:55:46;;;;;;;;;;;;;;;18.26;39.15;101287.44;5056363;28;20391;-75
2021/03/25 01:58:30;;;;;;;7.78;3.67;;;;;;;18.43;38.83;101289.91;5055854;28;20283;-75
2021/03/25 02:01:14;;;;;;;10.73;3.97;;;;;;;18.40;38.70;101284.28;5056990;28;20028;-93
2021/03/25 02:04:04;;;;;;;10.32;3.85;;;;;;;18.35;38.66;101285.34;5055733;28;20544;-85
2021/03/25 02:07:19;;;;;;;7.75;3.30;;;;;;;18.34;38.63;101282.94;5056058;28;20241;-75
2021/03/25 02:09:48;;;;;;;11.35;4.05;;;;;;;18.32;38.63;101279.72;5054708;28;20036;-91
2021/03/25 02:12:41;;;;;;;6.93;2.83;;;;;;;18.32;38.48;101282.47;5054864;28;20097;-86
2021/03/25 02:15:17;;;;;;;6.18;3.00;;;;;;;18.42;38.31;101282.78;5054679;28;20036;-94
2021/03/25 02:17:55;;;;;;;7.60;3.47;;;;;;;18.30;38.65;101283.66;5055627;28;20047;-77
2021/03/25 02:20:48;;;;;;;6.18;2.75;;;;;;;18.07;39.17;101277.03;5054808;28;20024;-75
2021/03/25 02:23:42;;;;;;;11.85;3.78;;;;;;;18.18;38.56;101280.91;5052900;28;20025;-75
2021/03/25 02:26:17;;;;;;;9.70;3.80;;;;;;;18.17;38.61;101276.53;5055671;28;20035;-87
2021/03/25 02:29:23;;;;;;;5.03;3.20;;;;;;;18.22;38.62;101273.53;5053905;28;20032;-93
2021/03/25 02:31:54;;;;;;;10.43;3.47;;;;;;;18.22;38.58;101273.53;5054737;28;20102;-91
2021/03/25 02:34:25;;;;;;;13.18;4.13;;;;;;;18.20;38.69;101270.28;5054812;28;20056;-75
2021/03/25 02:36:56;;;;;;;9.23;4.10;;;;;;;18.19;38.61;101271.47;5049474;28;20391;-75
2021/03/25 02:39:35;;;;;;;6.80;2.80;;;;;;;18.13;38.87;101266.53;5053874;28;20475;-75
2021/03/25 02:42:03;;;;;;;9.88;3.58;;;;;;;18.23;38.77;101261.31;5054389;28;20056;-85
2021/03/25 02:44:36;;;;;;;9.20;4.10;;;;;;;18.23;38.73;101258.53;5054373;28;20472;-75
2021/03/25 02:47:08;;;;;;;8.60;3.67;;;;;;;18.26;38.71;101262.56;5054441;28;20021;-74
2021/03/25 02:49:41;;;;;;;9.77;3.85;;;;;;;18.25;38.73;101259.00;5054124;28;20017;-88
2021/03/25 02:52:30;;;;;;;14.70;4.60;;;;;;;18.25;38.90;101263.72;5054234;28;20027;-87
2021/03/25 02:54:56;;;;;;;13.85;3.75;;;;;;;18.25;38.88;101252.66;5054581;28;20036;-88
2021/03/25 02:57:33;;;;;;;9.95;3.60;;;;;;;18.27;38.65;101250.34;5053928;28;20025;-75
2021/03/25 03:00:10;;;;;;;12.25;4.07;;;;;;;18.38;38.70;101250.66;5053991;28;20029;-90
2021/03/25 03:02:48;;;;;;;12.68;4.07;;;;;;;18.44;38.58;101243.69;5052938;28;20433;-90
2021/03/25 03:05:23;;;;;;;7.07;2.80;;;;;;;18.49;38.61;101244.22;5053539;28;20036;-77
2021/03/25 03:07:55;;;;;;;8.55;3.25;;;;;;;18.56;38.54;101240.84;5054174;28;20025;-93
2021/03/25 03:10:26;;;;;;;8.20;3.00;;;;;;;18.58;38.37;101228.25;5053955;28;20062;-78
2021/03/25 03:12:55;;;;;;;9.18;3.35;;;;;;;18.66;38.47;101240.34;5052565;28;20511;-90
2021/03/25 03:15:31;;;;;;;8.13;3.38;;;;;;;18.52;38.43;101239.97;5053668;28;20059;-79
2021/03/25 03:18:21;;;;;;;13.43;3.95;;;;;;;18.45;38.61;101237.81;5053563;28;20021;-90
2021/03/25 03:21:00;;;;;;;10.32;3.42;;;;;;;18.43;38.67;101244.84;5053700;28;20059;-75
2021/03/25 03:23:29;;;;;;;8.95;3.30;;;;;;;18.45;38.62;101240.56;5053282;28;20025;-79
2021/03/25 03:26:00;;;;;;;10.63;2.67;;;;;;;18.40;38.46;101240.81;5053285;28;20545;-88
2021/03/25 03:28:35;;;;;;;5.30;2.45;;;;;;;18.32;38.71;101241.00;5052729;28;20029;-91
2021/03/25 03:31:05;;;;;;;8.35;2.50;;;;;;;18.36;38.80;101237.16;5053295;28;20029;-77
2021/03/25 03:33:43;;;;;;;12.45;3.08;;;;;;;18.41;38.59;101236.91;5053467;28;20087;-75
2021/03/25 03:36:14;;;;;;;9.57;3.15;;;;;;;18.48;38.20;101234.31;5053459;28;20029;-92
2021/03/25 03:38:50;;;;;;;9.90;2.90;;;;;;;18.43;38.50;101231.81;5052799;28;20017;-75
2021/03/25 03:41:21;;;;;;;9.75;2.85;;;;;;;18.23;38.75;101230.88;5053293;28;20017;-92
2021/03/25 03:43:48;;;;;;;12.70;3.05;;;;;;;18.42;38.44;101224.66;5051925;28;20375;-75
2021/03/25 03:46:20;;;;;;;15.43;4.32;;;;;;;18.49;38.35;101226.81;5053056;28;20487;-77
2021/03/25 03:49:10;;;;;;;9.63;2.72;;;;;;;18.52;38.51;101223.38;5052195;28;20084;-92
2021/03/25 03:52:01;;;;;;;8.65;2.78;;;;;;;18.41;38.56;101219.50;5052075;28;20018;-75
2021/03/25 03:54:26;;;;;;;12.02;3.10;;;;;;;18.55;38.32;101219.88;5053153;28;20041;-92
2021/03/25 03:57:00;;;;;;;8.48;2.30;;;;;;;18.46;38.39;101219.25;5053655;28;20037;-75
2021/03/25 03:59:39;;;;;;;7.72;2.75;;;;;;;18.53;38.43;101216.66;5053042;28;20025;-90
2021/03/25 04:02:40;;;;;;;7.57;2.88;;;;;;;18.60;38.40;101210.53;5051810;28;20021;-75
2021/03/25 04:05:08;;;;;;;9.13;2.60;;;;;;;18.65;38.28;101219.34;5053196;28;20029;-77
2021/03/25 04:07:38;;;;;;;18.77;4.80;;;;;;;18.54;38.44;101210.78;5052907;28;20078;-89
2021/03/25 04:10:46;;;;;;;9.95;2.78;;;;;;;18.50;38.72;101201.56;5053469;28;20029;-91
2021/03/25 04:13:17;;;;;;;13.70;2.70;;;;;;;18.57;38.18;101196.22;5051764;28;20128;-92
2021/03/25 04:15:47;;;;;;;;;;;;;;;18.39;38.45;101186.66;5053255;28;20025;-91
2021/03/25 04:18:19;;;;;;;8.70;2.47;;;;;;;18.38;38.35;101200.84;5052614;28;19913;-92
2021/03/25 04:20:50;;;;;;;11.05;2.50;;;;;;;18.51;38.11;101194.06;5052702;28;20021;-86
2021/03/25 04:23:19;;;;;;;8.88;2.95;;;;;;;18.60;38.09;101188.38;5053160;28;20071;-77
2021/03/25 04:26:11;;;;;;;9.52;2.78;;;;;;;18.71;38.10;101190.28;5053234;28;20032;-91
2021/03/25 04:28:45;;;;;;;7.55;3.05;;;;;;;18.68;38.05;101193.75;5052242;28;20114;-91
2021/03/25 04:31:11;;;;;;;13.85;2.95;;;;;;;18.78;37.99;101187.69;5053079;28;20032;-80
2021/03/25 04:33:38;;;;;;;6.28;2.53;;;;;;;18.77;37.93;101186.06;5052882;28;20032;-91
2021/03/25 04:36:09;;;;;;;8.32;3.42;;;;;;;18.76;37.94;101197.50;5052767;28;20036;-92
2021/03/25 04:38:40;;;;;;;11.15;2.83;;;;;;;18.63;38.20;101191.22;5054758;28;20059;-91
2021/03/25 04:41:06;;;;;;;;;;;;;;;18.62;38.28;101192.38;5057376;28;20027;-83
2021/03/25 04:43:32;;;;;;;10.18;2.80;;;;;;;18.81;38.06;101198.03;5056381;28;19920;-75
2021/03/25 04:46:19;;;;;;;11.50;3.10;;;;;;;18.79;37.99;101186.50;5055207;28;20025;-91
2021/03/25 04:48:46;;;;;;;6.45;2.33;;;;;;;18.83;38.07;101181.88;5056098;28;20032;-90
2021/03/25 04:51:18;;;;;;;11.82;2.95;;;;;;;18.80;38.10;101185.34;5056481;28;20021;-75
2021/03/25 04:53:45;;;;;;;7.30;2.35;;;;;;;18.73;38.15;101182.41;5056141;28;20163;-75
2021/03/25 04:56:19;;;;;;;13.02;2.58;;;;;;;18.71;38.10;101184.72;5056255;28;20037;-75
2021/03/25 04:58:50;;;;;;;7.72;2.13;;;;;;;18.79;37.92;101180.97;5056550;28;20024;-75
2021/03/25 05:01:23;;;;;;;13.02;2.60;;;;;;;18.74;37.89;101172.13;5056464;28;20025;-75
2021/03/25 05:03:54;;;;;;;9.95;3.08;;;;;;;18.88;37.83;101177.22;5055010;28;20368;-91
2021/03/25 05:06:59;;;;;;;11.60;2.42;;;;;;;18.84;37.83;101169.66;5056299;28;20616;-84
2021/03/25 05:09:28;;;;;;;6.20;2.40;;;;;;;18.94;37.67;101173.03;5056396;28;20096;-74
2021/03/25 05:11:54;;;;;;;9.45;2.05;;;;;;;18.95;37.62;101171.84;5056237;28;20108;-75
2021/03/25 05:14:26;;;;;;;8.57;2.38;;;;;;;19.00;37.64;101172.41;5055979;28;20048;-74
2021/03/25 05:17:27;;;;;;;7.05;2.20;;;;;;;18.96;37.76;101173.47;5056004;28;20092;-76
2021/03/25 05:19:55;;;;;;;6.55;2.58;;;;;;;19.02;37.43;101169.25;5051242;28;20090;-90
2021/03/25 05:22:23;;;;;;;7.07;2.40;;;;;;;18.92;37.33;101172.59;5054740;28;20032;-76
2021/03/25 05:25:14;;;;;;;11.75;2.85;;;;;;;18.80;37.72;101174.28;5054576;28;20045;-92
2021/03/25 05:28:01;;;;;;;15.15;2.97;;;;;;;18.68;37.92;101173.59;5055148;28;20044;-75
2021/03/25 05:30:33;;;;;;;17.38;2.97;;;;;;;18.87;37.63;101170.06;5056098;28;20037;-90
2021/03/25 05:33:03;;;;;;;14.18;4.22;;;;;;;18.92;37.46;101170.63;5055537;28;20074;-79
2021/03/25 05:35:42;;;;;;;14.68;2.55;;;;;;;18.94;37.51;101168.28;5055792;28;20031;-75
2021/03/25 05:38:08;;;;;;;14.82;2.60;;;;;;;18.87;37.63;101164.53;5055790;28;20559;-78
2021/03/25 05:40:52;;;;;;;7.47;2.33;;;;;;;18.96;37.23;101165.16;5054395;28;20067;-93
2021/03/25 05:43:45;;;;;;;15.73;2.95;;;;;;;18.95;37.42;101163.53;5055533;28;20068;-75
2021/03/25 05:46:29;;;;;;;6.80;2.05;;;;;;;18.97;37.17;101158.47;5055086;28;20041;-76
2021/03/25 05:49:38;;;;;;;7.65;2.60;;;;;;;18.81;37.37;101161.22;5055938;28;20035;-95
2021/03/25 05:52:34;;;;;;;7.20;2.17;;;;;;;18.95;37.29;101149.69;5024389;28;20036;-75
2021/03/25 05:55:22;;;;;;;17.08;3.17;;;;;;;18.92;37.07;101159.53;5055345;28;20025;-78
2021/03/25 05:58:05;;;;;;;12.63;2.50;;;;;;;18.95;37.18;101163.53;5056038;28;20025;-92
2021/03/25 06:00:42;;;;;;;15.18;2.30;;;;;;;18.94;37.05;101157.22;5053729;28;20380;-79
2021/03/25 06:03:11;;;;;;;16.38;3.55;;;;;;;18.93;37.11;101161.16;5054925;28;20029;-75
2021/03/25 06:05:37;;;;;;;27.20;6.20;;;;;;;18.97;37.00;101164.81;5054988;28;20029;-76
2021/03/25 06:08:54;;;;;;;24.42;5.10;;;;;;;18.68;37.71;101160.56;5055241;28;20031;-77
2021/03/25 06:11:27;;;;;;;16.23;3.47;;;;;;;18.78;37.31;101160.00;5053151;28;20515;-75
2021/03/25 06:14:11;;;;;;;24.33;4.55;;;;;;;18.78;37.24;101167.50;5054353;28;20624;-89
2021/03/25 06:16:59;;;;;;;8.55;2.10;;;;;;;18.66;37.40;101154.53;5046862;28;20049;-88
2021/03/25 06:19:44;;;;;;;5.47;1.95;;;;;;;18.57;37.73;101164.97;5055957;28;20033;-76
2021/03/25 06:22:26;;;;;;;6.20;2.28;;;;;;;18.70;37.45;101155.44;5055910;28;20384;-86
2021/03/25 06:25:20;;;;;;;8.27;2.08;;;;;;;18.38;38.31;101162.13;5055286;28;20108;-75
2021/03/25 06:28:06;;;;;;;6.15;2.03;;;;;;;18.49;37.89;101143.81;5056793;28;20032;-77
2021/03/25 06:30:35;;;;;;;10.45;2.97;;;;;;;18.72;37.39;101153.13;5054960;28;20086;-75
2021/03/25 06:33:16;;;;;;;7.07;2.40;;;;;;;18.75;37.37;101155.19;5056189;28;20426;-75
2021/03/25 06:35:51;;;;;;;8.32;2.50;;;;;;;18.79;37.45;101160.81;5054980;28;20029;-76
2021/03/25 06:38:44;;;;;;;13.80;3.25;;;;;;;18.64;37.71;101153.28;5056250;28;20021;-75
2021/03/25 06:41:21;;;;;;;8.25;1.98;;;;;;;18.69;37.63;101141.97;5054458;28;20407;-92
2021/03/25 06:44:02;;;;;;;5.85;2.70;;;;;;;18.65;37.56;101144.59;5054787;28;20032;-93
2021/03/25 06:46:52;;;;;;;12.35;2.40;;;;;;;18.87;37.45;101147.94;5055555;28;20021;-91
2021/03/25 06:49:35;;;;;;;6.82;2.03;;;;;;;18.80;37.38;101141.06;5054453;28;20067;-92
2021/03/25 06:52:31;;;;;;;7.55;2.72;;;;;;;18.87;37.17;101151.50;5054721;28;20128;-76
2021/03/25 06:55:06;;;;;;;9.13;3.47;;;;;;;18.75;37.59;101144.13;5054033;28;20090;-76
2021/03/25 06:57:55;;;;;;;4.15;1.90;;;;;;;18.90;37.40;101155.53;5052387;28;20108;-85
2021/03/25 07:00:23;;;;;;;8.15;2.10;;;;;;;18.72;38.00;101144.81;5051914;28;20041;-75
2021/03/25 07:02:50;;;;;;;5.57;2.03;;;;;;;18.83;37.63;101139.56;5051855;28;20688;-88
2021/03/25 07:05:28;;;;;;;7.93;2.83;;;;;;;18.72;38.13;101142.03;5052988;28;20025;-76
2021/03/25 07:08:16;;;;;;;8.43;2.10;;;;;;;18.76;37.79;101139.38;5051428;28;20021;-83
2021/03/25 07:10:43;;;;;;;9.70;2.47;;;;;;;18.83;37.89;101140.34;5045015;28;20060;-78
2021/03/25 07:13:16;;;;;;;7.72;2.88;;;;;;;18.90;37.88;101136.97;5052502;28;20434;-86
2021/03/25 07:15:42;;;;;;;8.32;2.25;;;;;;;18.70;38.12;101136.06;5053590;28;20486;-76
2021/03/25 07:18:34;;;;;;;5.05;2.15;;;;;;;18.61;38.53;101129.09;5053505;28;20065;-81
2021/03/25 07:21:27;;;;;;;8.50;2.47;;;;;;;18.54;39.08;101138.81;5052786;28;20394;-78
2021/03/25 07:23:59;;;;;;;7.70;2.15;;;;;;;18.70;38.63;101132.50;5053979;28;20111;-77
2021/03/25 07:26:36;;;;;;;8.40;2.15;;;;;;;18.75;38.66;101132.25;5055804;28;20025;-77
2021/03/25 07:29:12;;;;;;;7.88;2.00;;;;;;;18.71;38.87;101123.84;5055970;28;20025;-76
2021/03/25 07:31:43;;;;;;;7.03;1.98;;;;;;;18.80;38.53;101121.69;5056606;28;20478;-76
2021/03/25 07:34:09;;;;;;;8.60;2.45;;;;;;;18.76;38.71;101131.06;5056900;28;21408;-75
2021/03/25 07:36:49;;;;;;;8.07;2.00;;;;;;;18.88;38.38;101130.16;5055718;28;20103;-75
2021/03/25 07:39:22;;;;;;;9.13;2.55;;;;;;;18.59;39.27;101123.94;5054326;28;20031;-79
2021/03/25 07:41:48;;;;;;;8.85;2.08;;;;;;;18.71;39.02;101120.28;5055971;28;20107;-76
2021/03/25 07:44:50;;;;;;;6.85;2.38;;;;;;;18.91;38.67;101121.94;5056929;28;20441;-77
2021/03/25 07:47:27;;;;;;;5.78;1.98;;;;;;;18.81;38.85;101126.03;5056571;28;20012;-76
2021/03/25 07:49:53;;;;;;;5.45;2.45;;;;;;;18.87;38.86;101111.94;5056773;28;20438;-75
2021/03/25 07:52:30;;;;;;;8.38;1.77;;;;;;;18.92;38.92;101117.22;5057089;28;20031;-75
2021/03/25 07:55:30;;;;;;;8.75;2.38;;;;;;;18.82;38.90;101122.16;5055998;28;20028;-75
2021/03/25 07:57:57;;;;;;;12.30;2.75;;;;;;;18.95;38.66;101116.47;5056481;28;20029;-76
2021/03/25 08:00:35;;;;;;;12.00;3.67;;;;;;;18.91;38.86;101121.94;5053882;28;20409;-85
2021/03/25 08:03:10;;;;;;;4.78;1.90;;;;;;;19.11;38.59;101120.00;5051712;28;20433;-86
2021/03/25 08:05:36;;;;;;;8.38;2.35;;;;;;;19.07;38.40;101116.38;5051240;28;20104;-84
2021/03/25 08:08:25;;;;;;;7.10;2.17;;;;;;;19.06;38.77;101110.03;5050585;28;20112;-84
2021/03/25 08:11:06;;;;;;;8.10;2.20;;;;;;;19.22;38.35;101112.75;5052169;28;20029;-77
2021/03/25 08:13:32;;;;;;;6.82;2.42;;;;;;;19.22;38.25;101109.19;5051914;28;20048;-76
2021/03/25 08:16:04;;;;;;;5.60;1.50;;;;;;;19.25;38.29;101120.31;5054245;28;20104;-90
2021/03/25 08:18:48;;;;;;;8.55;2.28;;;;;;;19.12;38.48;101102.25;5055946;28;20402;-89
2021/03/25 08:21:38;;;;;;;7.55;2.35;;;;;;;19.28;38.35;101116.03;5053395;28;20041;-77
2021/03/25 08:24:15;;;;;;;8.52;2.40;;;;;;;19.45;38.08;101104.53;5054941;28;20029;-76
2021/03/25 08:26:40;;;;;;;7.55;2.67;;;;;;;19.58;37.76;101113.53;5055675;28;20028;-82
2021/03/25 08:29:34;;;;;;;5.50;2.38;;;;;;;19.73;37.56;101106.31;5051003;28;20025;-84
2021/03/25 08:32:12;;;;;;;8.18;2.03;;;;;;;19.56;38.05;101111.06;5049780;28;20041;-74
2021/03/25 08:35:06;;;;;;;8.30;2.78;;;;;;;19.49;37.98;101110.13;5053021;28;20029;-74
2021/03/25 08:38:07;;;;;;;10.45;3.42;;;;;;;19.35;38.31;101107.88;5055011;28;21439;-78
2021/03/25 08:40:53;;;;;;;6.55;1.70;;;;;;;19.85;37.66;101104.16;5055932;28;20037;-75
2021/03/25 08:43:43;;;;;;;8.65;2.97;;;;;;;19.88;37.57;101113.72;5056649;28;20809;-75
2021/03/25 08:46:16;;;;;;;15.75;3.40;;;;;;;19.91;37.76;101105.47;5091553;28;20017;-74
2021/03/25 08:48:54;;;;;;;7.03;2.13;;;;;;;19.95;37.68;101106.34;5059613;28;20028;-71
2021/03/25 08:51:26;;;;;;;6.38;2.28;;;;;;;20.03;37.34;101100.94;5059275;28;20025;-69
2021/03/25 08:54:29;;;;;;;5.50;1.77;;;;;;;20.05;37.17;101096.63;5056695;28;20059;-69
2021/03/25 08:57:02;;;;;;;11.85;2.33;;;;;;;20.26;37.01;101087.88;5054414;28;20025;-69
2021/03/25 09:00:09;;;;;;;13.00;2.63;;;;;;;20.44;36.67;101089.00;5053174;28;20025;-69
2021/03/25 09:02:50;;;;;;;9.52;2.10;;;;;;;20.44;36.87;101091.78;5042920;28;20483;-69
2021/03/25 09:05:15;;;;;;;11.82;2.97;;;;;;;20.47;36.65;101085.47;5054421;28;20012;-69
2021/03/25 09:07:42;;;;;;;10.82;2.17;;;;;;;20.49;36.72;101077.59;5054492;28;20505;-68
2021/03/25 09:10:39;;;;;;;10.02;2.60;;;;;;;20.31;36.97;101084.78;5054032;28;20090;-69
2021/03/25 09:13:07;;;;;;;8.07;2.03;;;;;;;20.59;36.28;101083.69;5053014;28;20053;-69
2021/03/25 09:15:33;;;;;;;34.58;4.30;;;;;;;20.19;37.37;101087.75;5054200;28;20025;-80
2021/03/25 09:18:06;;;;;;;35.00;5.43;;;;;;;20.45;36.85;101085.03;5053124;28;20051;-69
2021/03/25 09:20:37;;;;;;;9.45;2.63;;;;;;;20.24;37.30;101079.91;5053920;28;20544;-68
2021/03/25 09:23:46;;;;;;;17.02;3.17;;;;;;;20.54;36.94;101075.66;5054043;28;20155;-69
2021/03/25 09:26:12;;;;;;;9.73;2.97;;;;;;;20.68;36.75;101076.69;5052366;28;20368;-69
2021/03/25 09:31:39;;;;;;;7.78;2.10;;;;;;;20.80;36.59;101075.66;5053815;28;20467;-69
2021/03/25 09:34:11;;;;;;;8.70;2.17;;;;;;;20.71;36.57;101075.16;5052878;28;20151;-69
2021/03/25 09:36:36;;;;;;;27.73;4.03;;;;;;;20.76;36.71;101066.47;5051950;28;20044;-78
2021/03/25 09:39:02;;;;;;;17.88;3.58;;;;;;;20.72;36.67;101073.97;5050964;28;20437;-68
2021/03/25 09:41:28;;;;;;;17.35;3.25;;;;;;;20.71;36.68;101080.69;5052068;28;20037;-68
2021/03/25 09:44:09;;;;;;;22.17;5.47;;;;;;;20.87;36.50;101072.19;5051408;28;20025;-68
2021/03/25 09:46:47;;;;;;;17.15;3.47;;;;;;;20.97;36.23;101066.78;5051836;28;20463;-68
2021/03/25 09:49:19;;;;;;;18.85;4.60;;;;;;;21.10;36.04;101074.91;5052084;28;20048;-73
2021/03/25 09:51:47;;;;;;;7.35;1.95;;;;;;;21.06;36.46;101066.50;5051944;28;20032;-80
2021/03/25 09:54:26;;;;;;;9.63;2.08;;;;;;;21.05;36.01;101067.69;5051183;28;20111;-68
2021/03/25 09:57:29;;;;;;;18.17;3.87;;;;;;;21.13;36.22;101063.03;5051725;28;20157;-68
2021/03/25 10:00:23;;;;;;;9.75;2.90;;;;;;;21.30;35.82;101059.69;5051220;28;20103;-69
2021/03/25 10:02:49;;;;;;;28.00;5.90;;;;;;;21.31;35.97;101066.84;5050508;28;20091;-75
2021/03/25 10:08:12;;;;;;;19.35;4.35;;;;;;;21.28;36.00;101053.72;5052299;28;20033;-70
2021/03/25 10:11:00;;;;;;;13.10;2.95;;;;;;;21.19;35.64;101055.97;5050881;28;20033;-68
2021/03/25 10:13:29;;;;;;;51.80;8.60;;;;;;;21.32;35.56;101051.81;5051337;28;20048;-81
2021/03/25 10:16:24;;;;;;;11.77;3.65;;;;;;;21.51;35.25;101040.50;5051846;28;20102;-68
2021/03/25 10:18:51;;;;;;;20.98;4.03;;;;;;;21.42;35.52;101037.22;5050079;28;20025;-68
2021/03/25 10:21:39;;;;;;;16.27;3.10;;;;;;;21.72;34.88;101042.72;5051789;28;20091;-68
2021/03/25 10:24:18;;;;;;;16.20;3.17;;;;;;;21.63;35.31;101036.66;5051101;28;20029;-69
2021/03/25 10:26:47;;;;;;;39.47;9.05;;;;;;;21.85;35.03;101040.47;5051292;28;20033;-68
2021/03/25 10:29:29;;;;;;;11.88;2.92;;;;;;;21.82;35.26;101035.66;5051670;28;20381;-68
2021/03/25 10:32:00;;;;;;;40.67;8.70;;;;;;;21.79;35.08;101034.44;5051328;28;20111;-68
2021/03/25 10:34:41;;;;;;;19.40;3.00;;;;;;;21.80;35.09;101021.34;5051369;28;20029;-68
2021/03/25 10:37:49;;;;;;;33.30;5.78;;;;;;;21.86;34.71;101030.94;5050499;28;20020;-68
2021/03/25 10:40:45;;;;;;;17.80;4.00;;;;;;;22.30;34.29;101019.81;5051239;28;20074;-83
2021/03/25 10:43:34;;;;;;;20.80;5.35;;;;;;;21.97;34.95;101025.47;5048677;28;20120;-70
2021/03/25 10:46:04;;;;;;;20.52;4.20;;;;;;;22.18;34.54;101016.53;5049619;28;20482;-74
2021/03/25 10:48:40;;;;;;;30.63;5.78;;;;;;;21.89;35.24;101016.25;5051655;28;20502;-82
2021/03/25 10:51:11;;;;;;;10.90;3.10;;;;;;;22.06;34.66;101017.59;5050997;28;20029;-82
2021/03/25 10:53:40;;;;;;;14.05;3.63;;;;;;;22.42;34.34;101013.13;5051631;28;20029;-81
2021/03/25 10:56:44;;;;;;;11.73;2.17;;;;;;;22.42;34.41;101013.13;5050026;28;20029;-74
2021/03/25 10:59:09;;;;;;;11.77;2.95;;;;;;;22.40;34.51;101009.94;5049610;28;20033;-82
2021/03/25 11:01:37;;;;;;;17.13;3.53;;;;;;;22.37;34.67;101005.16;5050865;28;20356;-73
2021/03/25 11:04:36;;;;;;;23.33;4.30;;;;;;;22.28;34.63;101002.69;5050544;28;20020;-69
2021/03/25 11:07:13;;;;;;;29.80;5.13;;;;;;;22.47;34.24;100987.72;5049892;28;20067;-69
2021/03/25 11:09:38;;;;;;;9.82;2.28;;;;;;;22.36;34.39;100993.19;5049478;28;20119;-69
2021/03/25 11:12:12;;;;;;;10.98;2.60;;;;;;;22.38;34.34;100993.63;5050192;28;20029;-70
2021/03/25 11:14:48;;;;;;;10.02;2.47;;;;;;;22.57;34.49;100983.41;5051247;28;20064;-69
2021/03/25 11:17:30;;;;;;;11.30;2.63;;;;;;;22.77;34.14;100979.13;5050809;28;20041;-78
2021/03/25 11:19:59;;;;;;;17.75;3.67;;;;;;;22.67;34.87;100975.13;5050171;28;20029;-68
2021/03/25 11:22:29;;;;;;;22.65;4.25;;;;;;;23.08;34.14;100980.50;5050512;28;20039;-78
2021/03/25 11:24:58;;;;;;;6.60;1.95;;;;;;;22.86;34.51;100953.75;5049468;28;20029;-68
2021/03/25 11:27:27;;;;;;;51.80;12.98;;;;;;;23.03;34.09;100966.13;5049942;28;20025;-69
2021/03/25 11:30:24;;;;;;;12.43;2.30;;;;;;;23.29;34.00;100962.25;5049549;28;20027;-68
2021/03/25 11:32:50;;;;;;;17.58;4.50;;;;;;;23.41;34.17;100962.66;5049241;28;20024;-68
2021/03/25 11:35:39;;;;;;;9.90;2.38;;;;;;;23.72;33.87;100957.56;5049383;28;20039;-69
2021/03/25 11:38:24;;;;;;;7.70;2.65;;;;;;;23.28;33.99;100946.72;5049032;28;20079;-68
2021/03/25 11:40:51;;;;;;;10.75;3.55;;;;;;;23.40;33.86;100957.47;5049484;28;20024;-75
2021/03/25 11:43:20;;;;;;;12.65;3.10;;;;;;;23.51;33.44;100942.38;5048458;28;20040;-68
2021/03/25 11:45:50;;;;;;;12.95;3.70;;;;;;;23.69;33.42;100945.22;5049390;28;20060;-68
2021/03/25 11:48:20;;;;;;;11.32;2.58;;;;;;;23.47;33.84;100929.63;5047577;28;20036;-68
2021/03/25 11:50:47;;;;;;;7.45;2.25;;;;;;;23.53;33.49;100926.03;5048644;28;20025;-68
2021/03/25 11:53:33;;;;;;;9.05;2.05;;;;;;;23.69;32.91;100939.63;5048748;28;20033;-68
2021/03/25 11:55:59;;;;;;;7.00;2.40;;;;;;;23.81;33.24;100938.44;5049926;28;20063;-69
2021/03/25 11:58:25;;;;;;;10.35;2.28;;;;;;;23.88;32.78;100932.88;5052704;28;20029;-68
2021/03/25 12:01:14;;;;;;;16.05;4.03;;;;;;;23.92;33.21;100933.66;5052255;28;20586;-73
2021/03/25 12:03:53;;;;;;;18.90;3.50;;;;;;;23.48;33.15;100914.47;5050853;28;20037;-69
2021/03/25 12:06:34;;;;;;;9.38;2.60;;;;;;;23.56;33.11;100918.88;5052567;28;20029;-70
2021/03/25 12:09:19;;;;;;;18.60;4.93;;;;;;;23.37;33.50;100913.69;5055556;28;20596;-72
2021/03/25 12:11:47;;;;;;;7.68;2.60;;;;;;;23.77;33.07;100902.16;5053547;28;20380;-70